createdAt,value
2019-06-08T00:01:14.368Z,18.30
2019-06-08T00:02:51.846Z,18.20
2019-06-08T00:04:28.397Z,18.20
2019-06-08T00:06:05.951Z,18.20
2019-06-08T00:07:42.682Z,18.20
2019-06-08T00:09:20.869Z,18.20
2019-06-08T00:10:58.519Z,18.20
2019-06-08T00:12:35.942Z,18.20
2019-06-08T00:14:13.113Z,18.20
2019-06-08T00:15:50.656Z,18.20
2019-06-08T00:17:37.680Z,18.20
2019-06-08T00:19:06.479Z,18.20
2019-06-08T00:20:42.946Z,18.20
2019-06-08T00:22:21.872Z,18.20
2019-06-08T00:23:58.680Z,18.20
2019-06-08T00:25:36.068Z,18.30
2019-06-08T00:27:13.946Z,18.20
2019-06-08T00:28:51.353Z,18.30
2019-06-08T00:30:28.822Z,18.30
2019-06-08T00:32:06.382Z,18.30
2019-06-08T00:33:42.951Z,18.30
2019-06-08T00:35:20.786Z,18.30
2019-06-08T00:36:57.377Z,18.30
2019-06-08T00:38:34.781Z,18.20
2019-06-08T00:40:11.559Z,18.20
2019-06-08T00:41:48.844Z,18.20
2019-06-08T00:43:25.572Z,18.20
2019-06-08T00:45:03.325Z,18.20
2019-06-08T00:46:40.894Z,18.20
2019-06-08T00:48:19.521Z,18.20
2019-06-08T00:49:56.278Z,18.20
2019-06-08T00:51:33.592Z,18.30
2019-06-08T00:53:10.156Z,18.30
2019-06-08T00:54:47.405Z,18.20
2019-06-08T00:56:26.047Z,18.20
2019-06-08T00:58:03.437Z,18.20
2019-06-08T00:59:40.197Z,18.20
2019-06-08T01:01:22.073Z,18.20
2019-06-08T01:02:55.902Z,18.20
2019-06-08T01:04:33.303Z,18.20
2019-06-08T01:06:09.939Z,18.20
2019-06-08T01:07:47.389Z,18.20
2019-06-08T01:09:24.238Z,18.30
2019-06-08T01:11:01.797Z,18.30
2019-06-08T01:12:38.577Z,18.20
2019-06-08T01:14:27.311Z,18.30
2019-06-08T01:16:04.710Z,18.30
2019-06-08T01:17:41.149Z,18.30
2019-06-08T01:19:19.199Z,18.30
2019-06-08T01:20:56.048Z,18.30
2019-06-08T01:22:34.327Z,18.30
2019-06-08T01:24:10.899Z,18.30
2019-06-08T01:25:48.236Z,18.30
2019-06-08T01:27:26.001Z,18.20
2019-06-08T01:29:03.622Z,18.30
2019-06-08T01:30:40.269Z,18.30
2019-06-08T01:32:17.554Z,18.30
2019-06-08T01:33:54.095Z,18.30
2019-06-08T01:35:31.419Z,18.30
2019-06-08T01:37:07.924Z,18.20
2019-06-08T01:38:45.241Z,18.10
2019-06-08T01:40:23.257Z,18.10
2019-06-08T01:42:00.720Z,18.10
2019-06-08T01:43:37.298Z,18.00
2019-06-08T01:45:16.356Z,18.10
2019-06-08T01:46:54.169Z,18.20
2019-06-08T01:48:30.700Z,18.20
2019-06-08T01:50:08.997Z,18.20
2019-06-08T01:51:45.572Z,18.20
2019-06-08T01:53:23.032Z,18.10
2019-06-08T01:54:59.535Z,18.10
2019-06-08T01:56:36.937Z,18.00
2019-06-08T01:58:13.585Z,18.00
2019-06-08T01:59:50.838Z,18.00
2019-06-08T02:01:27.788Z,18.00
2019-06-08T02:03:05.315Z,18.00
2019-06-08T02:04:41.954Z,18.00
2019-06-08T02:06:19.294Z,18.00
2019-06-08T02:07:55.831Z,18.00
2019-06-08T02:09:33.328Z,18.00
2019-06-08T02:11:09.934Z,18.00
2019-06-08T02:12:47.194Z,18.00
2019-06-08T02:14:24.969Z,18.10
2019-06-08T02:16:02.544Z,18.10
2019-06-08T02:17:39.151Z,18.10
2019-06-08T02:19:16.365Z,18.00
2019-06-08T02:20:53.486Z,18.10
2019-06-08T02:22:31.029Z,18.10
2019-06-08T02:24:07.711Z,18.10
2019-06-08T02:25:45.104Z,18.10
2019-06-08T02:27:21.882Z,18.10
2019-06-08T02:28:59.228Z,18.20
2019-06-08T02:30:39.742Z,18.20
2019-06-08T02:32:15.755Z,18.20
2019-06-08T02:33:52.370Z,18.10
2019-06-08T02:35:30.711Z,18.20
2019-06-08T02:37:07.551Z,18.10
2019-06-08T02:38:44.877Z,18.10
2019-06-08T02:40:21.786Z,18.20
2019-06-08T02:41:59.170Z,18.20
2019-06-08T02:43:37.693Z,18.10
2019-06-08T02:45:15.409Z,18.10
2019-06-08T02:46:51.983Z,18.10
2019-06-08T02:48:30.026Z,18.10
2019-06-08T02:50:12.138Z,18.10
2019-06-08T02:51:50.506Z,18.10
2019-06-08T02:53:29.548Z,18.20
2019-06-08T02:55:08.907Z,18.20
2019-06-08T02:56:48.062Z,18.30
2019-06-08T02:58:25.873Z,18.40
2019-06-08T03:00:05.938Z,18.50
2019-06-08T03:01:45.963Z,18.60
2019-06-08T03:03:22.978Z,18.70
2019-06-08T03:05:03.915Z,18.80
2019-06-08T03:06:43.879Z,18.90
2019-06-08T03:08:22.350Z,19.00
2019-06-08T03:10:03.018Z,19.00
2019-06-08T03:11:41.524Z,19.20
2019-06-08T03:13:19.066Z,19.40
2019-06-08T03:14:57.045Z,19.50
2019-06-08T03:16:35.581Z,19.60
2019-06-08T03:18:12.477Z,19.70
2019-06-08T03:19:49.151Z,19.80
2019-06-08T03:21:26.649Z,19.90
2019-06-08T03:23:03.189Z,20.10
2019-06-08T03:24:41.471Z,20.10
2019-06-08T03:26:18.256Z,20.40
2019-06-08T03:27:55.585Z,20.50
2019-06-08T03:29:32.454Z,20.60
2019-06-08T03:31:10.047Z,20.90
2019-06-08T03:32:55.187Z,21.00
2019-06-08T03:34:25.660Z,21.10
2019-06-08T03:36:02.134Z,21.30
2019-06-08T03:37:40.093Z,21.50
2019-06-08T03:39:18.102Z,21.70
2019-06-08T03:40:55.898Z,21.80
2019-06-08T03:42:32.357Z,22.10
2019-06-08T03:44:09.780Z,22.20
2019-06-08T03:45:46.365Z,22.40
2019-06-08T03:47:23.739Z,22.40
2019-06-08T03:49:00.208Z,22.30
2019-06-08T03:50:39.252Z,22.20
2019-06-08T03:52:15.676Z,22.20
2019-06-08T03:53:53.009Z,22.40
2019-06-08T03:55:29.518Z,22.30
2019-06-08T03:57:07.076Z,22.40
2019-06-08T03:58:46.816Z,22.50
2019-06-08T04:00:23.767Z,22.70
2019-06-08T04:02:00.321Z,23.00
2019-06-08T04:03:39.766Z,23.20
2019-06-08T04:05:16.199Z,23.30
2019-06-08T04:06:53.756Z,23.30
2019-06-08T04:08:30.583Z,23.30
2019-06-08T04:10:09.074Z,23.00
2019-06-08T04:11:46.806Z,23.20
2019-06-08T04:13:25.193Z,23.30
2019-06-08T04:15:01.746Z,23.20
2019-06-08T04:16:40.140Z,23.40
2019-06-08T04:18:17.354Z,23.30
2019-06-08T04:20:09.738Z,23.30
2019-06-08T04:21:32.877Z,23.20
2019-06-08T04:23:10.254Z,23.00
2019-06-08T04:24:46.747Z,23.10
2019-06-08T04:26:24.154Z,23.30
2019-06-08T04:28:00.650Z,23.00
2019-06-08T04:29:39.472Z,23.00
2019-06-08T04:31:16.196Z,23.20
2019-06-08T04:32:53.538Z,22.70
2019-06-08T04:34:30.112Z,22.50
2019-06-08T04:36:07.543Z,22.90
2019-06-08T04:37:44.788Z,22.60
2019-06-08T04:40:09.495Z,22.50
2019-06-08T04:41:47.124Z,22.90
2019-06-08T04:43:24.838Z,22.60
2019-06-08T04:45:02.145Z,22.80
2019-06-08T04:46:40.623Z,22.70
2019-06-08T04:48:17.719Z,23.00
2019-06-08T04:49:53.703Z,23.10
2019-06-08T04:51:31.294Z,22.80
2019-06-08T04:53:07.503Z,22.60
2019-06-08T04:54:45.160Z,22.40
2019-06-08T04:56:24.362Z,22.70
2019-06-08T04:58:01.719Z,22.70
2019-06-08T04:59:39.032Z,22.60
2019-06-08T05:01:17.282Z,22.70
2019-06-08T05:02:54.448Z,22.60
2019-06-08T05:04:31.702Z,23.10
2019-06-08T05:06:08.423Z,23.30
2019-06-08T05:07:47.855Z,23.00
2019-06-08T05:09:24.712Z,22.90
2019-06-08T05:11:02.366Z,22.90
2019-06-08T05:12:39.286Z,23.30
2019-06-08T05:14:16.660Z,22.90
2019-06-08T05:15:53.204Z,23.10
2019-06-08T05:17:30.637Z,22.90
2019-06-08T05:19:07.186Z,22.80
2019-06-08T05:20:47.252Z,22.80
2019-06-08T05:22:23.126Z,23.00
2019-06-08T05:24:00.526Z,23.00
2019-06-08T05:25:36.994Z,23.20
2019-06-08T05:27:14.490Z,23.60
2019-06-08T05:28:51.260Z,23.40
2019-06-08T05:30:28.722Z,23.90
2019-06-08T05:32:05.446Z,24.30
2019-06-08T05:33:43.430Z,24.10
2019-06-08T05:35:20.295Z,24.10
2019-06-08T05:36:58.293Z,24.40
2019-06-08T05:38:35.014Z,24.30
2019-06-08T05:40:12.935Z,24.40
2019-06-08T05:41:49.810Z,24.50
2019-06-08T05:43:27.314Z,24.70
2019-06-08T05:45:08.036Z,24.90
2019-06-08T05:46:45.777Z,24.90
2019-06-08T05:48:22.468Z,24.70
2019-06-08T05:50:00.852Z,25.20
2019-06-08T05:51:37.294Z,24.90
2019-06-08T05:53:14.714Z,25.40
2019-06-08T05:54:51.344Z,24.70
2019-06-08T05:56:28.662Z,24.50
2019-06-08T05:58:05.279Z,24.40
2019-06-08T05:59:44.069Z,24.10
2019-06-08T06:01:21.265Z,24.00
2019-06-08T06:02:59.121Z,23.90
2019-06-08T06:04:35.835Z,24.20
2019-06-08T06:06:13.122Z,25.10
2019-06-08T06:07:49.111Z,25.60
2019-06-08T06:09:26.469Z,24.90
2019-06-08T06:11:03.068Z,25.90
2019-06-08T06:12:40.923Z,26.10
2019-06-08T06:14:17.678Z,26.30
2019-06-08T06:15:55.198Z,26.20
2019-06-08T06:17:31.716Z,26.40
2019-06-08T06:19:09.271Z,26.00
2019-06-08T06:20:47.187Z,25.90
2019-06-08T06:22:24.786Z,26.50
2019-06-08T06:24:01.432Z,26.10
2019-06-08T06:25:38.827Z,26.00
2019-06-08T06:27:15.437Z,26.10
2019-06-08T06:28:52.963Z,26.30
2019-06-08T06:30:29.796Z,26.70
2019-06-08T06:32:07.293Z,26.50
2019-06-08T06:33:43.939Z,26.90
2019-06-08T06:35:21.412Z,26.80
2019-06-08T06:36:58.352Z,26.70
2019-06-08T06:38:35.206Z,26.60
2019-06-08T06:40:11.941Z,26.70
2019-06-08T06:41:49.946Z,26.90
2019-06-08T06:43:26.700Z,26.70
2019-06-08T06:45:06.284Z,26.60
2019-06-08T06:46:43.968Z,26.70
2019-06-08T06:48:23.513Z,26.70
2019-06-08T06:49:59.622Z,26.60
2019-06-08T06:51:37.113Z,26.90
2019-06-08T06:53:13.807Z,26.50
2019-06-08T06:54:51.321Z,26.40
2019-06-08T06:56:28.019Z,27.80
2019-06-08T06:58:05.530Z,28.60
2019-06-08T06:59:43.311Z,28.80
2019-06-08T07:01:20.884Z,29.60
2019-06-08T07:02:59.417Z,29.60
2019-06-08T07:04:36.831Z,29.60
2019-06-08T07:06:14.371Z,29.60
2019-06-08T07:07:52.461Z,30.40
2019-06-08T07:09:29.334Z,30.50
2019-06-08T07:11:06.762Z,29.90
2019-06-08T07:12:44.420Z,29.60
2019-06-08T07:14:21.879Z,29.30
2019-06-08T07:15:58.613Z,29.60
2019-06-08T07:17:35.937Z,30.60
2019-06-08T07:19:12.965Z,31.20
2019-06-08T07:20:50.313Z,31.40
2019-06-08T07:22:26.869Z,31.50
2019-06-08T07:24:04.362Z,31.80
2019-06-08T07:25:41.111Z,31.80
2019-06-08T07:27:18.537Z,32.00
2019-06-08T07:28:55.432Z,32.50
2019-06-08T07:30:33.239Z,31.20
2019-06-08T07:32:09.840Z,30.10
2019-06-08T07:33:48.747Z,30.40
2019-06-08T07:35:25.582Z,31.30
2019-06-08T07:37:02.827Z,31.70
2019-06-08T07:38:39.329Z,31.60
2019-06-08T07:40:17.028Z,32.00
2019-06-08T07:41:54.285Z,31.80
2019-06-08T07:43:31.920Z,31.10
2019-06-08T07:45:09.550Z,31.60
2019-06-08T07:46:47.059Z,32.20
2019-06-08T07:48:24.014Z,32.50
2019-06-08T07:50:04.608Z,32.70
2019-06-08T07:51:39.813Z,32.90
2019-06-08T07:53:17.159Z,33.00
2019-06-08T07:54:54.682Z,33.10
2019-06-08T07:56:32.286Z,32.70
2019-06-08T07:58:08.949Z,33.00
2019-06-08T07:59:47.588Z,33.00
2019-06-08T08:01:35.875Z,33.10
2019-06-08T08:03:03.653Z,32.70
2019-06-08T08:04:40.137Z,32.30
2019-06-08T08:06:17.614Z,32.10
2019-06-08T08:07:54.838Z,31.90
2019-06-08T08:09:32.292Z,31.50
2019-06-08T08:11:09.160Z,31.10
2019-06-08T08:12:49.289Z,30.80
2019-06-08T08:14:25.994Z,30.80
2019-06-08T08:16:03.334Z,30.50
2019-06-08T08:17:39.967Z,30.70
2019-06-08T08:19:17.372Z,31.10
2019-06-08T08:20:55.829Z,31.10
2019-06-08T08:22:33.192Z,30.80
2019-06-08T08:24:09.907Z,30.70
2019-06-08T08:25:47.532Z,30.70
2019-06-08T08:27:24.323Z,30.90
2019-06-08T08:29:03.317Z,31.20
2019-06-08T08:30:40.052Z,31.30
2019-06-08T08:32:18.801Z,31.50
2019-06-08T08:33:58.315Z,30.90
2019-06-08T08:35:34.863Z,31.30
2019-06-08T08:37:11.477Z,31.70
2019-06-08T08:38:51.559Z,31.90
2019-06-08T08:40:28.285Z,32.10
2019-06-08T08:42:07.920Z,32.10
2019-06-08T08:43:44.054Z,32.30
2019-06-08T08:45:21.837Z,32.70
2019-06-08T08:47:01.335Z,33.10
2019-06-08T08:48:37.959Z,33.10
2019-06-08T08:50:14.766Z,33.40
2019-06-08T08:51:52.250Z,32.60
2019-06-08T08:53:28.951Z,32.30
2019-06-08T08:55:08.272Z,32.70
2019-06-08T08:56:50.410Z,32.80
2019-06-08T08:58:25.149Z,33.20
2019-06-08T09:00:05.025Z,33.20
2019-06-08T09:01:41.752Z,33.40
2019-06-08T09:03:28.979Z,33.50
2019-06-08T09:05:01.983Z,33.10
2019-06-08T09:06:38.131Z,33.20
2019-06-08T09:08:18.094Z,33.40
2019-06-08T09:09:55.545Z,33.70
2019-06-08T09:11:33.550Z,33.70
2019-06-08T09:13:12.071Z,33.90
2019-06-08T09:14:49.324Z,33.50
2019-06-08T09:16:28.561Z,33.70
2019-06-08T09:18:07.964Z,33.90
2019-06-08T09:19:43.517Z,33.90
2019-06-08T09:21:22.334Z,34.20
2019-06-08T09:23:08.999Z,34.40
2019-06-08T09:24:39.202Z,34.70
2019-06-08T09:26:17.618Z,34.90
2019-06-08T09:27:56.418Z,34.80
2019-06-08T09:29:33.890Z,34.90
2019-06-08T09:31:12.941Z,34.90
2019-06-08T09:32:49.910Z,33.80
2019-06-08T09:34:28.279Z,34.10
2019-06-08T09:36:07.331Z,34.30
2019-06-08T09:37:44.390Z,34.00
2019-06-08T09:39:20.925Z,33.20
2019-06-08T09:41:01.247Z,32.50
2019-06-08T09:42:37.057Z,32.30
2019-06-08T09:44:14.618Z,32.00
2019-06-08T09:45:51.225Z,32.50
2019-06-08T09:47:29.097Z,32.60
2019-06-08T09:49:11.000Z,32.70
2019-06-08T09:50:45.079Z,32.60
2019-06-08T09:52:21.803Z,31.80
2019-06-08T09:54:02.639Z,32.20
2019-06-08T09:55:38.188Z,32.40
2019-06-08T09:57:18.921Z,32.80
2019-06-08T09:58:57.399Z,33.10
2019-06-08T10:00:37.659Z,33.30
2019-06-08T10:02:13.996Z,33.00
2019-06-08T10:03:51.380Z,32.70
2019-06-08T10:05:28.163Z,33.00
2019-06-08T10:07:05.815Z,33.40
2019-06-08T10:08:43.279Z,33.50
2019-06-08T10:10:21.633Z,33.30
2019-06-08T10:11:59.586Z,32.90
2019-06-08T10:13:39.148Z,32.70
2019-06-08T10:15:18.307Z,32.50
2019-06-08T10:16:56.281Z,32.60
2019-06-08T10:18:33.258Z,32.40
2019-06-08T10:20:11.968Z,31.30
2019-06-08T10:21:48.577Z,30.80
2019-06-08T10:23:33.510Z,31.30
2019-06-08T10:25:11.209Z,31.70
2019-06-08T10:26:48.115Z,31.90
2019-06-08T10:28:24.797Z,32.10
2019-06-08T10:30:04.290Z,32.10
2019-06-08T10:31:43.660Z,32.40
2019-06-08T10:33:19.763Z,32.50
2019-06-08T10:34:58.772Z,32.40
2019-06-08T10:36:38.174Z,32.80
2019-06-08T10:38:14.008Z,33.30
2019-06-08T10:39:51.503Z,33.60
2019-06-08T10:41:28.872Z,33.80
2019-06-08T10:43:07.330Z,33.70
2019-06-08T10:44:44.696Z,33.40
2019-06-08T10:46:22.136Z,33.70
2019-06-08T10:48:00.822Z,34.10
2019-06-08T10:49:38.526Z,33.80
2019-06-08T10:51:15.335Z,33.60
2019-06-08T10:52:52.756Z,33.30
2019-06-08T10:54:29.391Z,33.20
2019-06-08T10:56:10.383Z,32.30
2019-06-08T10:57:47.610Z,31.70
2019-06-08T10:59:24.317Z,31.80
2019-06-08T11:01:04.169Z,31.90
2019-06-08T11:02:40.879Z,32.10
2019-06-08T11:04:18.627Z,32.30
2019-06-08T11:05:58.594Z,32.30
2019-06-08T11:07:35.082Z,32.30
2019-06-08T11:09:14.959Z,32.30
2019-06-08T11:10:51.803Z,32.70
2019-06-08T11:12:29.201Z,33.10
2019-06-08T11:14:07.952Z,33.30
2019-06-08T11:15:48.003Z,33.70
2019-06-08T11:17:23.718Z,34.20
2019-06-08T11:19:02.741Z,34.10
2019-06-08T11:20:39.481Z,34.30
2019-06-08T11:22:18.021Z,34.50
2019-06-08T11:24:10.832Z,34.70
2019-06-08T11:25:37.559Z,34.50
2019-06-08T11:27:13.791Z,34.60
2019-06-08T11:28:51.412Z,34.20
2019-06-08T11:30:30.576Z,34.20
2019-06-08T11:32:11.823Z,34.30
2019-06-08T11:33:45.743Z,34.40
2019-06-08T11:35:23.224Z,34.40
2019-06-08T11:37:01.873Z,34.50
2019-06-08T11:38:39.077Z,34.60
2019-06-08T11:40:20.339Z,34.40
2019-06-08T11:41:55.072Z,33.70
2019-06-08T11:43:31.479Z,33.80
2019-06-08T11:45:12.992Z,34.10
2019-06-08T11:46:52.930Z,34.10
2019-06-08T11:48:30.344Z,33.90
2019-06-08T11:50:13.110Z,34.20
2019-06-08T11:51:49.824Z,33.90
2019-06-08T11:53:28.805Z,33.70
2019-06-08T11:55:11.250Z,33.60
2019-06-08T11:56:48.226Z,33.80
2019-06-08T11:58:28.289Z,33.90
2019-06-08T12:00:24.043Z,33.80
2019-06-08T12:01:50.983Z,33.90
2019-06-08T12:03:30.213Z,33.90
2019-06-08T12:05:11.123Z,34.20
2019-06-08T12:06:48.383Z,34.30
2019-06-08T12:08:28.544Z,34.40
2019-06-08T12:10:07.067Z,34.30
2019-06-08T12:11:44.811Z,34.00
2019-06-08T12:13:22.315Z,33.40
2019-06-08T12:14:59.637Z,33.00
2019-06-08T12:16:37.823Z,33.10
2019-06-08T12:18:17.962Z,33.30
2019-06-08T12:19:53.771Z,33.30
2019-06-08T12:21:31.460Z,33.60
2019-06-08T12:23:08.023Z,33.90
2019-06-08T12:24:45.425Z,34.20
2019-06-08T12:26:22.139Z,34.00
2019-06-08T12:27:59.487Z,34.20
2019-06-08T12:29:36.430Z,32.90
2019-06-08T12:31:17.707Z,32.70
2019-06-08T12:32:52.702Z,33.20
2019-06-08T12:34:30.122Z,33.40
2019-06-08T12:36:09.137Z,32.70
2019-06-08T12:37:48.344Z,31.70
2019-06-08T12:39:24.848Z,32.10
2019-06-08T12:41:02.119Z,32.20
2019-06-08T12:42:38.686Z,32.70
2019-06-08T12:44:17.381Z,32.90
2019-06-08T12:45:54.460Z,33.00
2019-06-08T12:47:32.328Z,33.30
2019-06-08T12:49:11.261Z,33.60
2019-06-08T12:50:48.230Z,33.40
2019-06-08T12:52:24.803Z,33.30
2019-06-08T12:54:02.298Z,33.60
2019-06-08T12:55:38.904Z,33.70
2019-06-08T12:57:17.575Z,33.60
2019-06-08T12:58:54.558Z,33.80
2019-06-08T13:00:32.951Z,33.70
2019-06-08T13:02:13.983Z,33.70
2019-06-08T13:03:49.685Z,34.00
2019-06-08T13:05:27.625Z,34.10
2019-06-08T13:07:05.720Z,34.30
2019-06-08T13:08:42.324Z,34.30
2019-06-08T13:10:23.900Z,34.30
2019-06-08T13:11:59.418Z,34.40
2019-06-08T13:13:37.749Z,34.30
2019-06-08T13:15:15.167Z,34.40
2019-06-08T13:16:53.022Z,34.60
2019-06-08T13:18:30.020Z,34.50
2019-06-08T13:20:20.503Z,34.60
2019-06-08T13:21:58.183Z,34.70
2019-06-08T13:23:34.420Z,34.70
2019-06-08T13:25:23.724Z,34.60
2019-06-08T13:26:50.793Z,34.60
2019-06-08T13:28:28.464Z,34.70
2019-06-08T13:30:07.542Z,34.80
2019-06-08T13:31:45.083Z,34.90
2019-06-08T13:33:21.557Z,34.80
2019-06-08T13:34:58.911Z,34.60
2019-06-08T13:36:38.666Z,34.60
2019-06-08T13:38:17.301Z,34.50
2019-06-08T13:39:53.894Z,34.40
2019-06-08T13:41:32.128Z,34.60
2019-06-08T13:43:08.766Z,34.80
2019-06-08T13:44:47.478Z,34.10
2019-06-08T13:46:24.177Z,32.40
2019-06-08T13:48:01.562Z,32.90
2019-06-08T13:49:38.478Z,32.40
2019-06-08T13:51:19.373Z,32.90
2019-06-08T13:52:54.338Z,31.90
2019-06-08T13:54:31.922Z,31.80
2019-06-08T13:56:08.529Z,31.30
2019-06-08T13:57:45.860Z,31.10
2019-06-08T13:59:27.313Z,31.30
2019-06-08T14:01:01.562Z,31.30
2019-06-08T14:02:39.881Z,31.40
2019-06-08T14:04:19.174Z,31.50
2019-06-08T14:05:55.793Z,31.60
2019-06-08T14:07:34.856Z,31.50
2019-06-08T14:09:11.587Z,31.40
2019-06-08T14:10:49.185Z,31.40
2019-06-08T14:12:30.697Z,31.30
2019-06-08T14:14:05.556Z,31.30
2019-06-08T14:15:42.806Z,31.30
2019-06-08T14:17:23.807Z,31.10
2019-06-08T14:18:58.760Z,31.00
2019-06-08T14:20:38.607Z,31.00
2019-06-08T14:22:14.636Z,31.00
2019-06-08T14:23:51.906Z,31.10
2019-06-08T14:25:30.085Z,31.10
2019-06-08T14:27:08.313Z,31.50
2019-06-08T14:28:45.008Z,31.70
2019-06-08T14:30:23.738Z,31.80
2019-06-08T14:32:00.686Z,32.00
2019-06-08T14:33:38.166Z,32.10
2019-06-08T14:35:14.832Z,32.20
2019-06-08T14:36:52.145Z,32.30
2019-06-08T14:38:37.980Z,32.10
2019-06-08T14:40:09.979Z,32.10
2019-06-08T14:41:47.537Z,32.10
2019-06-08T14:43:29.675Z,31.80
2019-06-08T14:45:07.771Z,31.70
2019-06-08T14:46:48.045Z,31.70
2019-06-08T14:48:31.179Z,31.80
2019-06-08T14:50:07.836Z,31.50
2019-06-08T14:51:49.954Z,31.30
2019-06-08T14:53:27.411Z,31.20
2019-06-08T14:55:07.807Z,31.10
2019-06-08T14:56:44.671Z,30.90
2019-06-08T14:58:24.092Z,30.70
2019-06-08T15:00:08.380Z,30.50
2019-06-08T15:01:39.032Z,30.40
2019-06-08T15:03:18.046Z,30.30
2019-06-08T15:04:54.975Z,30.10
2019-06-08T15:06:34.211Z,30.00
2019-06-08T15:08:10.852Z,29.90
2019-06-08T15:09:48.705Z,29.80
2019-06-08T15:11:27.781Z,29.70
2019-06-08T15:13:04.873Z,29.70
2019-06-08T15:14:41.532Z,29.60
2019-06-08T15:16:19.778Z,29.50
2019-06-08T15:17:58.138Z,29.40
2019-06-08T15:19:35.949Z,29.30
2019-06-08T15:21:12.523Z,29.20
2019-06-08T15:22:50.253Z,29.20
2019-06-08T15:24:29.313Z,29.00
2019-06-08T15:26:20.433Z,29.00
2019-06-08T15:27:44.960Z,29.00
2019-06-08T15:29:22.889Z,29.00
2019-06-08T15:31:00.121Z,28.90
2019-06-08T15:32:40.320Z,28.90
2019-06-08T15:34:17.857Z,28.90
2019-06-08T15:35:57.526Z,28.90
2019-06-08T15:37:34.083Z,29.00
2019-06-08T15:39:11.508Z,29.00
2019-06-08T15:40:48.210Z,28.90
2019-06-08T15:42:28.693Z,28.90
2019-06-08T15:44:04.222Z,29.00
2019-06-08T15:45:41.676Z,29.00
2019-06-08T15:47:18.297Z,29.00
2019-06-08T15:48:55.705Z,29.00
2019-06-08T15:50:32.717Z,29.00
2019-06-08T15:52:10.203Z,29.00
2019-06-08T15:53:48.134Z,28.90
2019-06-08T15:55:26.647Z,28.80
2019-06-08T15:57:04.293Z,28.80
2019-06-08T15:58:41.622Z,28.80
2019-06-08T16:00:18.589Z,28.80
2019-06-08T16:01:55.944Z,28.70
2019-06-08T16:03:33.507Z,28.70
2019-06-08T16:05:11.531Z,28.50
2019-06-08T16:06:48.706Z,28.50
2019-06-08T16:08:26.236Z,28.40
2019-06-08T16:10:03.108Z,28.60
2019-06-08T16:11:40.741Z,28.50
2019-06-08T16:13:17.351Z,28.50
2019-06-08T16:14:55.263Z,28.50
2019-06-08T16:16:33.385Z,28.50
2019-06-08T16:18:10.926Z,28.50
2019-06-08T16:19:47.977Z,28.40
2019-06-08T16:21:25.601Z,28.50
2019-06-08T16:23:03.114Z,28.40
2019-06-08T16:24:40.513Z,28.30
2019-06-08T16:26:17.396Z,28.20
2019-06-08T16:27:54.791Z,28.00
2019-06-08T16:29:31.345Z,27.90
2019-06-08T16:31:11.835Z,27.80
2019-06-08T16:32:48.889Z,27.70
2019-06-08T16:34:27.275Z,27.40
2019-06-08T16:36:04.123Z,27.40
2019-06-08T16:37:41.473Z,27.20
2019-06-08T16:40:57.257Z,26.90
2019-06-08T16:42:34.659Z,27.00
2019-06-08T16:44:11.267Z,26.90
2019-06-08T16:45:48.665Z,27.00
2019-06-08T16:47:25.467Z,27.00
2019-06-08T16:49:02.796Z,26.90
2019-06-08T16:50:39.359Z,26.90
2019-06-08T16:52:17.358Z,26.90
2019-06-08T16:53:54.065Z,26.90
2019-06-08T16:55:32.083Z,26.80
2019-06-08T16:57:10.937Z,26.50
2019-06-08T16:58:48.175Z,26.50
2019-06-08T17:00:38.363Z,26.40
2019-06-08T17:02:05.000Z,26.40
2019-06-08T17:03:41.608Z,26.30
2019-06-08T17:05:19.090Z,26.20
2019-06-08T17:06:55.643Z,25.90
2019-06-08T17:08:35.775Z,26.00
2019-06-08T17:10:11.674Z,26.00
2019-06-08T17:11:49.010Z,25.80
2019-06-08T17:13:25.732Z,25.70
2019-06-08T17:15:03.243Z,25.70
2019-06-08T17:16:40.628Z,25.70
2019-06-08T17:18:20.695Z,25.50
2019-06-08T17:19:57.239Z,25.50
2019-06-08T17:21:34.664Z,25.50
2019-06-08T17:23:12.226Z,25.50
2019-06-08T17:24:50.430Z,25.30
2019-06-08T17:26:27.071Z,25.30
2019-06-08T17:28:04.561Z,25.10
2019-06-08T17:29:41.213Z,25.10
2019-06-08T17:31:18.700Z,25.00
2019-06-08T17:32:55.287Z,25.00
2019-06-08T17:34:36.567Z,24.90
2019-06-08T17:36:13.130Z,24.70
2019-06-08T17:37:50.483Z,24.60
2019-06-08T17:39:29.372Z,24.60
2019-06-08T17:41:06.611Z,24.50
2019-06-08T17:42:43.935Z,24.40
2019-06-08T17:44:21.503Z,24.30
2019-06-08T17:45:58.359Z,24.20
2019-06-08T17:47:36.397Z,24.20
2019-06-08T17:49:16.952Z,24.10
2019-06-08T17:50:54.525Z,24.00
2019-06-08T17:52:32.689Z,24.00
2019-06-08T17:54:10.127Z,23.90
2019-06-08T17:55:46.672Z,23.80
2019-06-08T17:57:24.070Z,23.80
2019-06-08T17:59:00.627Z,23.60
2019-06-08T18:00:37.944Z,23.50
2019-06-08T18:02:21.282Z,23.40
2019-06-08T18:03:53.612Z,23.40
2019-06-08T18:05:30.365Z,23.30
2019-06-08T18:07:08.373Z,23.20
2019-06-08T18:08:45.651Z,23.20
2019-06-08T18:10:24.131Z,23.00
2019-06-08T18:12:00.630Z,23.00
2019-06-08T18:13:40.788Z,22.90
2019-06-08T18:15:17.499Z,22.90
2019-06-08T18:16:57.350Z,22.80
2019-06-08T18:18:34.118Z,22.80
2019-06-08T18:20:17.811Z,22.70
2019-06-08T18:22:02.689Z,22.70
2019-06-08T18:23:39.152Z,22.60
2019-06-08T18:25:17.427Z,22.50
2019-06-08T18:26:58.543Z,22.50
2019-06-08T18:28:38.835Z,22.40
2019-06-08T18:30:18.929Z,22.30
2019-06-08T18:31:58.210Z,22.30
2019-06-08T18:33:34.689Z,22.20
2019-06-08T18:35:12.427Z,22.20
2019-06-08T18:36:49.898Z,22.10
2019-06-08T18:38:27.436Z,22.00
2019-06-08T18:40:07.276Z,22.00
2019-06-08T18:41:48.240Z,22.00
2019-06-08T18:43:27.979Z,21.90
2019-06-08T18:45:07.405Z,21.90
2019-06-08T18:46:45.094Z,21.80
2019-06-08T18:48:22.893Z,21.70
2019-06-08T18:49:59.743Z,21.70
2019-06-08T18:51:38.195Z,21.70
2019-06-08T18:53:15.503Z,21.70
2019-06-08T18:54:52.953Z,21.60
2019-06-08T18:56:29.357Z,21.60
2019-06-08T18:58:17.593Z,21.40
2019-06-08T18:59:48.681Z,21.40
2019-06-08T19:01:24.285Z,21.30
2019-06-08T19:03:00.885Z,21.20
2019-06-08T19:04:40.044Z,21.20
2019-06-08T19:06:18.717Z,21.20
2019-06-08T19:07:57.225Z,21.20
2019-06-08T19:09:34.601Z,21.10
2019-06-08T19:11:12.530Z,21.00
2019-06-08T19:12:50.710Z,21.00
2019-06-08T19:14:29.025Z,21.00
2019-06-08T19:16:07.515Z,20.90
2019-06-08T19:17:51.316Z,20.90
2019-06-08T19:19:23.104Z,20.90
2019-06-08T19:21:00.468Z,20.80
2019-06-08T19:22:42.861Z,20.90
2019-06-08T19:24:17.607Z,20.80
2019-06-08T19:25:54.550Z,20.80
2019-06-08T19:27:40.630Z,20.70
2019-06-08T19:29:13.057Z,20.60
2019-06-08T19:30:51.616Z,20.60
2019-06-08T19:32:28.556Z,20.60
2019-06-08T19:34:07.625Z,20.60
2019-06-08T19:35:44.594Z,20.50
2019-06-08T19:37:22.436Z,20.50
2019-06-08T19:38:59.004Z,20.30
2019-06-08T19:40:38.801Z,20.40
2019-06-08T19:42:14.580Z,20.40
2019-06-08T19:43:54.933Z,20.30
2019-06-08T19:45:31.559Z,20.30
2019-06-08T19:47:09.270Z,20.30
2019-06-08T19:48:53.287Z,20.20
2019-06-08T19:50:25.108Z,20.10
2019-06-08T19:52:01.663Z,20.10
2019-06-08T19:53:43.379Z,20.00
2019-06-08T19:55:18.081Z,20.00
2019-06-08T19:56:57.431Z,19.90
2019-06-08T19:58:34.823Z,19.90
2019-06-08T20:00:14.839Z,19.80
2019-06-08T20:01:56.092Z,19.80
2019-06-08T20:03:32.691Z,19.70
2019-06-08T20:05:10.987Z,19.70
2019-06-08T20:06:49.022Z,19.70
2019-06-08T20:08:29.112Z,19.70
2019-06-08T20:10:09.868Z,19.60
2019-06-08T20:11:53.474Z,19.50
2019-06-08T20:13:25.469Z,19.50
2019-06-08T20:15:02.815Z,19.50
2019-06-08T20:16:40.501Z,19.40
2019-06-08T20:18:18.052Z,19.40
2019-06-08T20:19:54.648Z,19.40
2019-06-08T20:21:31.886Z,19.30
2019-06-08T20:23:09.802Z,19.30
2019-06-08T20:24:52.160Z,19.20
2019-06-08T20:26:27.979Z,19.20
2019-06-08T20:28:04.629Z,19.10
2019-06-08T20:29:41.299Z,19.10
2019-06-08T20:31:18.785Z,19.00
2019-06-08T20:32:57.414Z,19.00
2019-06-08T20:34:34.349Z,18.90
2019-06-08T20:36:10.887Z,18.90
2019-06-08T20:37:48.272Z,18.90
2019-06-08T20:39:27.197Z,18.90
2019-06-08T20:41:04.102Z,18.80
2019-06-08T20:42:42.161Z,18.80
2019-06-08T20:44:19.687Z,18.80
2019-06-08T20:45:57.491Z,18.70
2019-06-08T20:47:36.766Z,18.70
2019-06-08T20:49:13.521Z,18.70
2019-06-08T20:50:52.243Z,18.60
2019-06-08T20:52:29.137Z,18.60
2019-06-08T20:54:07.899Z,18.60
2019-06-08T20:55:45.207Z,18.50
2019-06-08T20:57:23.156Z,18.50
2019-06-08T20:58:59.933Z,18.50
2019-06-08T21:00:37.786Z,18.40
2019-06-08T21:02:15.539Z,18.40